Time;durP1;ratioP1;P1;durP2;ratioP2;P2;SDS_P1;SDS_P2;PMS_P1;PMS_P2;Temp;Humidity;BMP_temperature;BMP_pressure;BME280_temperature;BME280_humidity;BME280_pressure;Samples;Min_cycle;Max_cycle;Signal;HPM_P1;HPM_P2
2022/05/16 00:02:15;;;;;;;;;15.60;15.60;;;;;21.46;37.56;99604.16;5047274;28;8874;-79
2022/05/16 00:04:46;;;;;;;;;14.60;14.60;;;;;21.47;37.89;99600.53;5049646;28;8842;-77
2022/05/16 00:07:16;;;;;;;;;14.00;14.00;;;;;21.46;37.73;99601.50;5061344;28;8832;-79
2022/05/16 00:09:47;;;;;;;;;15.20;15.20;;;;;21.47;37.53;99595.25;5068424;28;8895;-80
2022/05/16 00:12:17;;;;;;;;;17.20;16.20;;;;;21.47;37.68;99592.59;5068493;28;8962;-79
2022/05/16 00:14:46;;;;;;;;;16.00;14.60;;;;;21.45;37.70;99592.66;5036765;28;8834;-79
2022/05/16 00:17:16;;;;;;;;;16.40;15.00;;;;;21.42;37.60;99592.78;5048798;28;8842;-78
2022/05/16 00:19:45;;;;;;;;;12.40;11.40;;;;;21.39;37.43;99596.41;5048699;28;8870;-79
2022/05/16 00:22:14;;;;;;;;;12.40;11.20;;;;;21.42;37.31;99593.63;5048993;28;8854;-79
2022/05/16 00:24:44;;;;;;;;;10.00;10.00;;;;;21.28;37.37;99595.16;5048575;28;8965;-79
2022/05/16 00:27:14;;;;;;;;;12.40;10.60;;;;;21.17;37.83;99595.63;5031112;28;8858;-80
2022/05/16 00:29:42;;;;;;;;;13.20;12.20;;;;;21.17;37.85;99595.63;5022333;28;8869;-80
2022/05/16 00:32:13;;;;;;;;;14.00;14.00;;;;;21.21;37.73;99591.94;5030194;28;8854;-77
2022/05/16 00:34:44;;;;;;;;;16.00;16.00;;;;;21.16;37.94;99593.91;5048722;28;8862;-79
2022/05/16 00:37:12;;;;;;;;;14.80;14.80;;;;;21.02;38.47;99591.88;5049585;28;8854;-80
2022/05/16 00:39:41;;;;;;;;;15.40;15.40;;;;;21.03;38.21;99594.44;5047580;28;8900;-81
2022/05/16 00:42:12;;;;;;;;;14.60;13.40;;;;;20.97;38.50;99592.03;5064283;28;9674;-79
2022/05/16 00:44:42;;;;;;;;;15.60;15.00;;;;;20.96;38.67;99585.03;5030780;28;9630;-81
2022/05/16 00:47:10;;;;;;;;;13.20;13.20;;;;;20.96;38.19;99589.47;5049730;28;8851;-79
2022/05/16 00:49:43;;;;;;;;;16.00;14.60;;;;;20.99;38.35;99582.25;5047540;28;9675;-79
2022/05/16 00:52:18;;;;;;;;;12.40;12.00;;;;;20.93;37.84;99582.50;5053066;28;8965;-77
2022/05/16 00:54:51;;;;;;;;;13.80;12.40;;;;;20.96;37.95;99585.03;5048542;28;8857;-79
2022/05/16 00:57:24;;;;;;;;;12.60;11.80;;;;;20.92;38.09;99585.22;5047062;28;8835;-79
2022/05/16 00:59:58;;;;;;;;;10.60;10.60;;;;;20.92;37.62;99585.22;5046957;28;8858;-77
2022/05/16 01:05:14;;;;;;;;;11.40;10.80;;;;;20.68;37.46;99574.75;5062267;28;8867;-78
2022/05/16 01:07:45;;;;;;;;;13.80;11.60;;;;;20.68;38.15;99580.03;5010210;28;8838;-79
2022/05/16 01:10:16;;;;;;;;;12.20;12.20;;;;;20.65;37.92;99577.50;5029937;28;9739;-79
2022/05/16 01:12:48;;;;;;;;;12.80;11.60;;;;;20.70;38.39;99583.47;5010183;28;8854;-78
2022/05/16 01:15:32;;;;;;;;;14.00;14.00;;;;;20.68;37.76;99584.44;5026598;28;8865;-79
2022/05/16 01:18:01;;;;;;;;;13.00;13.00;;;;;20.68;37.85;99581.81;4990283;28;8860;-78
2022/05/16 01:20:56;;;;;;;;;12.80;12.40;;;;;20.73;37.54;99580.69;5009931;28;8859;-80
2022/05/16 01:23:27;;;;;;;;;11.40;10.80;;;;;20.71;37.40;99579.03;4976580;28;9737;-78
2022/05/16 01:25:56;;;;;;;;;12.80;12.80;;;;;20.74;38.02;99576.28;5042117;28;8854;-78
2022/05/16 01:28:25;;;;;;;;;10.80;10.60;;;;;20.69;37.96;99578.25;4993389;28;8850;-78
2022/05/16 01:30:55;;;;;;;;;12.20;12.00;;;;;20.69;38.06;99573.78;5029257;28;8854;-78
2022/05/16 01:33:26;;;;;;;;;13.20;13.20;;;;;20.70;38.41;99580.84;5014679;28;8842;-79
2022/05/16 01:35:55;;;;;;;;;13.80;13.60;;;;;20.57;38.08;99577.78;5013814;28;8964;-78
2022/05/16 01:38:27;;;;;;;;;11.20;11.20;;;;;20.58;38.59;99571.53;5040719;28;8844;-79
2022/05/16 01:40:58;;;;;;;;;13.80;12.40;;;;;20.43;39.40;99567.78;5066789;28;8862;-79
2022/05/16 01:43:29;;;;;;;;;13.80;12.60;;;;;20.33;38.93;99570.84;5053688;28;8878;-79
2022/05/16 01:45:58;;;;;;;;;13.60;13.20;;;;;20.23;39.73;99570.34;5052413;28;8858;-78
2022/05/16 01:48:30;;;;;;;;;13.20;13.00;;;;;20.05;39.95;99577.22;5051473;28;8866;-78
2022/05/16 01:51:00;;;;;;;;;16.60;14.60;;;;;20.12;40.78;99578.72;5050966;28;8851;-79
2022/05/16 01:53:30;;;;;;;;;16.60;16.20;;;;;20.07;40.96;99578.03;5051412;28;8863;-78
2022/05/16 01:55:59;;;;;;;;;13.40;12.20;;;;;20.10;40.36;99577.91;5044668;28;8886;-78
2022/05/16 01:58:28;;;;;;;;;12.80;11.80;;;;;20.02;40.83;99580.00;5054536;28;8836;-78
2022/05/16 02:00:57;;;;;;;;;13.40;13.40;;;;;19.99;40.74;99580.97;5073372;28;8835;-79
2022/05/16 02:03:26;;;;;;;;;14.60;13.40;;;;;20.01;40.89;99583.56;5060948;28;8847;-79
2022/05/16 02:05:55;;;;;;;;;17.00;17.00;;;;;19.92;41.35;99581.25;5040523;28;8915;-79
2022/05/16 02:08:23;;;;;;;;;13.60;13.00;;;;;19.82;41.36;99576.31;5051580;28;8900;-79
2022/05/16 02:10:53;;;;;;;;;12.60;12.60;;;;;19.77;41.26;99574.75;5051719;28;8862;-78
2022/05/16 02:13:22;;;;;;;;;13.40;13.00;;;;;19.53;41.71;99576.50;5056204;28;8870;-78
2022/05/16 02:15:50;;;;;;;;;12.60;12.60;;;;;19.64;41.79;99579.63;5051183;28;8854;-81
2022/05/16 02:18:19;;;;;;;;;13.20;13.00;;;;;19.76;41.76;99568.63;5049567;28;8846;-79
2022/05/16 02:20:48;;;;;;;;;12.80;12.80;;;;;19.77;41.31;99577.41;5050607;28;8879;-79
2022/05/16 02:26:04;;;;;;;;;13.20;12.60;;;;;19.60;41.73;99580.66;5047996;28;8839;-78
2022/05/16 02:28:32;;;;;;;;;13.40;12.00;;;;;19.58;42.06;99574.56;5049289;28;8925;-80
2022/05/16 02:31:01;;;;;;;;;14.00;14.00;;;;;19.62;41.22;99576.16;5035742;28;8845;-79
2022/05/16 02:33:29;;;;;;;;;15.40;13.80;;;;;19.57;41.45;99583.44;5068386;28;8909;-77
2022/05/16 02:35:58;;;;;;;;;11.00;9.20;;;;;19.55;41.47;99577.34;5068158;28;8992;-78
2022/05/16 02:38:26;;;;;;;;;10.60;10.20;;;;;19.59;41.60;99574.50;5051572;28;8841;-79
2022/05/16 02:40:55;;;;;;;;;14.60;13.80;;;;;19.61;41.92;99580.59;5034236;28;8919;-80
2022/05/16 02:43:25;;;;;;;;;11.80;11.80;;;;;19.63;42.01;99580.56;5051007;28;8940;-78
2022/05/16 02:45:53;;;;;;;;;13.60;13.20;;;;;19.51;42.53;99581.00;5067921;28;9566;-79
2022/05/16 02:48:22;;;;;;;;;13.40;13.40;;;;;19.53;42.02;99577.38;5050447;28;9971;-79
2022/05/16 02:50:51;;;;;;;;;13.00;13.00;;;;;19.62;41.83;99581.47;5034155;28;9742;-79
2022/05/16 02:53:19;;;;;;;;;14.60;14.00;;;;;19.73;41.63;99578.47;5068546;28;8960;-78
2022/05/16 02:55:48;;;;;;;;;16.20;13.60;;;;;19.80;41.52;99583.44;5068119;28;8937;-79
2022/05/16 02:58:16;;;;;;;;;14.00;12.00;;;;;19.76;41.33;99581.00;5011394;28;8915;-77
2022/05/16 03:00:46;;;;;;;;;13.80;13.60;;;;;19.65;42.05;99586.66;5011562;28;8850;-78
2022/05/16 03:03:15;;;;;;;;;11.20;11.20;;;;;19.64;41.68;99582.25;5029182;28;8853;-79
2022/05/16 03:05:43;;;;;;;;;16.00;14.20;;;;;19.61;41.57;99587.69;5018674;28;8828;-80
2022/05/16 03:08:12;;;;;;;;;13.00;13.00;;;;;19.61;41.34;99591.19;5015675;28;8983;-78
2022/05/16 03:10:41;;;;;;;;;14.60;13.20;;;;;19.64;41.37;99587.56;5025654;28;8846;-79
2022/05/16 03:13:09;;;;;;;;;15.40;12.20;;;;;19.61;41.29;99595.63;5027699;28;8960;-78
2022/05/16 03:15:38;;;;;;;;;11.40;11.40;;;;;19.59;41.57;99590.38;5026225;28;9544;-78
2022/05/16 03:18:08;;;;;;;;;11.40;11.20;;;;;19.54;41.09;99586.19;5009084;28;8869;-80
2022/05/16 03:20:37;;;;;;;;;12.60;11.40;;;;;19.53;41.15;99595.03;5025701;28;8924;-80
2022/05/16 03:23:05;;;;;;;;;13.60;13.60;;;;;19.51;41.42;99596.88;5035223;28;8891;-79
2022/05/16 03:25:35;;;;;;;;;12.60;12.20;;;;;19.47;41.52;99597.00;5009534;28;8873;-79
2022/05/16 03:28:06;;;;;;;;;14.00;13.20;;;;;19.52;41.93;99607.41;5029296;28;8896;-78
2022/05/16 03:30:35;;;;;;;;;15.00;13.20;;;;;19.59;42.01;99610.69;5031777;28;8867;-80
2022/05/16 03:33:04;;;;;;;;;15.80;15.80;;;;;19.64;42.21;99614.91;5053345;28;8834;-79
2022/05/16 03:35:34;;;;;;;;;19.00;17.50;;;;;19.73;42.64;99612.84;5048003;28;8835;-78
2022/05/16 03:38:02;;;;;;;;;53.50;44.50;;;;;19.83;43.05;99616.91;5063815;28;8852;-79
2022/05/16 03:40:42;;;;;;;;;32.50;30.75;;;;;19.94;43.24;99608.53;5075066;28;8871;-82
2022/05/16 03:43:11;;;;;;;;;18.00;17.25;;;;;20.03;43.20;99616.97;5062975;28;8858;-79
2022/05/16 03:45:41;;;;;;;;;16.75;16.75;;;;;19.94;43.18;99611.19;5051007;28;8855;-79
2022/05/16 03:48:10;;;;;;;;;18.75;17.50;;;;;19.91;43.10;99606.88;5054132;28;8921;-80
2022/05/16 03:50:41;;;;;;;;;17.80;17.80;;;;;19.98;42.30;99610.13;5069751;28;8967;-78
2022/05/16 03:53:10;;;;;;;;;16.20;14.80;;;;;19.98;41.73;99613.66;5066608;28;8920;-79
2022/05/16 03:55:39;;;;;;;;;14.60;13.00;;;;;20.04;41.83;99621.38;5060032;28;8847;-80
2022/05/16 03:58:07;;;;;;;;;15.00;15.00;;;;;20.13;41.73;99619.28;5054368;28;8876;-79
2022/05/16 04:00:36;;;;;;;;;13.60;13.60;;;;;20.24;41.62;99622.38;5050529;28;9643;-79
2022/05/16 04:03:04;;;;;;;;;14.20;14.20;;;;;20.35;40.88;99625.47;5053285;28;8942;-79
2022/05/16 04:05:33;;;;;;;;;16.20;15.40;;;;;20.46;40.73;99627.69;5063912;28;8860;-80
2022/05/16 04:08:05;;;;;;;;;14.20;13.20;;;;;20.54;40.56;99625.59;4996143;28;8897;-79
2022/05/16 04:10:34;;;;;;;;;15.60;15.20;;;;;20.68;40.23;99624.19;5051508;28;8909;-80
2022/05/16 04:13:02;;;;;;;;;49.75;42.50;;;;;20.76;39.99;99632.72;5052694;28;9681;-79
2022/05/16 04:15:31;;;;;;;;;26.75;26.75;;;;;20.87;39.75;99625.19;5050218;28;9581;-80
2022/05/16 04:18:02;;;;;;;;;17.00;17.00;;;;;20.98;39.57;99628.25;5065569;28;8836;-80
2022/05/16 04:20:30;;;;;;;;;15.60;14.20;;;;;20.97;39.64;99630.97;5050146;28;8839;-79
2022/05/16 04:22:59;;;;;;;;;8.20;7.40;;;;;20.90;39.45;99632.13;5048884;28;8846;-79
2022/05/16 04:25:29;;;;;;;;;18.00;18.00;;;;;20.67;41.42;99636.59;5049675;28;8866;-79
2022/05/16 04:27:58;;;;;;;;;18.20;17.80;;;;;20.69;41.52;99639.19;5049631;28;8866;-79
2022/05/16 04:30:26;;;;;;;;;18.25;17.00;;;;;20.79;41.78;99640.53;5045586;28;8868;-79
2022/05/16 04:32:55;;;;;;;;;18.75;16.00;;;;;20.91;41.70;99641.84;5050832;28;9026;-80
2022/05/16 04:35:23;;;;;;;;;36.75;32.50;;;;;21.07;40.33;99647.34;5051990;28;8863;-80
2022/05/16 04:37:52;;;;;;;;;16.75;15.50;;;;;21.23;39.85;99649.28;5028714;28;9581;-80
2022/05/16 04:40:22;;;;;;;;;19.75;17.50;;;;;21.36;39.80;99654.94;5049672;28;9682;-81
2022/05/16 04:42:51;;;;;;;;;16.20;16.20;;;;;21.49;39.26;99657.91;5049729;28;8893;-78
2022/05/16 04:45:22;;;;;;;;;65.00;52.67;;;;;21.63;39.15;99652.03;5049863;28;8823;-79
2022/05/16 04:47:53;;;;;;;;;49.00;41.00;;;;;21.73;38.57;99657.78;5055506;28;8951;-79
2022/05/16 04:50:29;;;;;;;;;21.50;20.50;;;;;21.83;37.99;99653.75;5046949;28;8845;-80
2022/05/16 04:52:57;;;;;;;;;17.25;17.25;;;;;21.87;38.54;99659.81;5047369;28;8980;-79
2022/05/16 04:55:28;;;;;;;;;18.00;17.75;;;;;21.91;38.99;99658.72;5027666;28;8863;-80
2022/05/16 04:57:58;;;;;;;;;16.25;16.25;;;;;21.95;38.71;99661.19;5027007;28;8840;-81
2022/05/16 05:00:28;;;;;;;;;15.40;15.40;;;;;22.05;38.57;99660.78;5041640;28;10081;-80
2022/05/16 05:02:58;;;;;;;;;13.00;13.00;;;;;21.91;37.82;99670.22;5044595;28;8909;-79
2022/05/16 05:05:26;;;;;;;;;16.40;15.40;;;;;21.94;37.88;99664.75;5033463;28;8852;-79
2022/05/16 05:07:55;;;;;;;;;18.00;18.00;;;;;22.06;37.71;99666.00;4997383;28;8869;-78
2022/05/16 05:16:05;;;;;;;;;14.00;13.00;;;;;21.30;38.23;99678.19;5060719;28;8972;-80
2022/05/16 05:18:35;;;;;;;;;14.00;14.00;;;;;21.53;38.25;99672.78;5064770;28;8858;-78
2022/05/16 05:21:03;;;;;;;;;16.00;14.40;;;;;21.51;36.99;99674.66;5050513;28;8850;-79
2022/05/16 05:23:33;;;;;;;;;15.60;14.80;;;;;21.51;36.97;99679.97;5059501;28;8881;-79
2022/05/16 05:26:02;;;;;;;;;11.60;10.20;;;;;21.10;37.67;99685.19;5049766;28;9600;-79
2022/05/16 05:28:33;;;;;;;;;18.60;18.20;;;;;20.65;39.78;99696.75;5050879;28;8980;-78
2022/05/16 05:31:01;;;;;;;;;15.60;15.40;;;;;20.59;40.53;99687.22;5056669;28;8860;-78
2022/05/16 05:33:30;;;;;;;;;18.20;17.20;;;;;20.75;40.73;99692.78;5071729;28;8848;-78
2022/05/16 05:36:00;;;;;;;;;21.80;20.80;;;;;21.06;40.47;99688.03;5069014;28;8959;-78
2022/05/16 05:38:28;;;;;;;;;17.00;17.00;;;;;21.33;39.71;99688.69;5073860;28;8986;-79
2022/05/16 05:40:57;;;;;;;;;17.00;16.20;;;;;20.77;40.56;99693.59;5080810;28;8882;-79
2022/05/16 05:43:26;;;;;;;;;12.60;12.00;;;;;20.32;40.69;99697.13;5024783;28;9510;-78
2022/05/16 05:45:56;;;;;;;;;13.00;13.00;;;;;20.17;40.95;99692.38;5053881;28;8835;-79
2022/05/16 05:48:25;;;;;;;;;15.00;15.00;;;;;20.54;40.46;99689.19;5051579;28;8931;-79
2022/05/16 05:50:54;;;;;;;;;16.20;16.20;;;;;20.68;40.42;99693.09;5038513;28;8906;-79
2022/05/16 05:53:23;;;;;;;;;16.00;15.00;;;;;20.64;40.98;99702.94;5068265;28;8856;-79
2022/05/16 05:55:51;;;;;;;;;15.40;14.20;;;;;20.78;40.22;99699.78;5081799;28;8831;-79
2022/05/16 05:58:20;;;;;;;;;14.40;14.40;;;;;21.22;39.81;99695.28;5050281;28;8865;-70
2022/05/16 06:00:49;;;;;;;;;14.00;14.00;;;;;21.61;39.62;99691.88;5055746;28;8858;-70
2022/05/16 06:03:19;;;;;;;;;19.00;18.50;;;;;22.06;38.81;99691.69;5070688;28;9030;-71
2022/05/16 06:05:49;;;;;;;;;17.25;17.00;;;;;22.32;38.93;99693.19;5051070;28;8842;-69
2022/05/16 06:08:17;;;;;;;;;16.40;15.80;;;;;22.64;37.35;99689.00;5049268;28;8876;-71
2022/05/16 06:10:47;;;;;;;;;25.00;21.75;;;;;22.86;36.34;99693.28;5058424;28;8836;-71
2022/05/16 06:13:15;;;;;;;;;14.80;13.80;;;;;23.15;36.38;99683.88;5050347;28;8987;-69
2022/05/16 06:15:44;;;;;;;;;14.80;14.80;;;;;23.33;35.94;99687.44;5054889;28;8896;-70
2022/05/16 06:18:13;;;;;;;;;15.00;15.00;;;;;23.37;35.80;99691.66;5042574;28;8851;-69
2022/05/16 06:20:43;;;;;;;;;25.75;24.00;;;;;23.07;36.34;99688.75;5067363;28;8866;-67
2022/05/16 06:23:11;;;;;;;;;13.20;13.20;;;;;23.34;36.57;99692.66;5069538;28;8864;-68
2022/05/16 06:25:42;;;;;;;;;19.75;18.50;;;;;23.58;36.55;99692.34;5063632;28;8842;-68
2022/05/16 06:28:13;;;;;;;;;17.40;14.80;;;;;23.78;36.23;99688.66;5057845;28;8869;-66
2022/05/16 06:30:44;;;;;;;;;15.80;15.80;;;;;23.93;35.56;99690.53;5049384;28;8846;-68
2022/05/16 06:33:14;;;;;;;;;16.80;14.80;;;;;23.99;35.80;99691.13;5048865;28;8858;-68
2022/05/16 06:35:44;;;;;;;;;17.40;16.20;;;;;23.91;35.94;99688.88;5048936;28;8885;-67
2022/05/16 06:38:22;;;;;;;;;16.40;15.20;;;;;24.10;36.04;99686.06;5049459;28;8875;-70
2022/05/16 06:40:51;;;;;;;;;16.60;14.40;;;;;24.31;35.74;99684.06;5048997;28;8843;-68
2022/05/16 06:43:22;;;;;;;;;14.00;14.00;;;;;24.49;35.70;99677.69;5057712;28;8871;-70
2022/05/16 06:45:51;;;;;;;;;20.75;19.00;;;;;24.66;35.25;99686.59;5050503;28;9662;-69
2022/05/16 06:48:20;;;;;;;;;16.25;16.25;;;;;24.73;35.14;99685.28;5049681;28;9596;-68
2022/05/16 06:50:52;;;;;;;;;20.00;18.75;;;;;24.71;35.36;99687.19;5049481;28;8862;-68
2022/05/16 06:53:23;;;;;;;;;12.40;12.40;;;;;24.64;35.59;99689.31;5019764;28;8858;-71
2022/05/16 06:55:52;;;;;;;;;17.20;15.80;;;;;24.69;35.93;99686.41;5052572;28;8868;-70
2022/05/16 06:58:20;;;;;;;;;18.25;17.75;;;;;24.88;35.94;99688.88;5033561;28;8836;-71
2022/05/16 07:00:50;;;;;;;;;14.60;14.60;;;;;25.08;34.95;99685.06;5069304;28;8929;-69
2022/05/16 07:03:18;;;;;;;;;12.60;12.60;;;;;25.27;33.90;99688.41;5068760;28;8940;-69
2022/05/16 07:05:50;;;;;;;;;13.20;11.40;;;;;25.37;33.72;99682.50;5065592;28;8852;-69
2022/05/16 07:08:21;;;;;;;;;15.20;13.60;;;;;25.52;32.75;99686.94;5067954;28;8843;-69
2022/05/16 07:10:51;;;;;;;;;15.60;15.40;;;;;25.57;33.18;99684.84;5032208;28;8871;-70
2022/05/16 07:13:24;;;;;;;;;18.40;17.00;;;;;25.45;33.24;99685.59;5068095;28;8895;-71
2022/05/16 07:15:53;;;;;;;;;16.75;16.50;;;;;25.49;33.44;99687.13;5067193;28;8852;-74
2022/05/16 07:18:22;;;;;;;;;18.00;17.00;;;;;25.73;33.36;99682.09;5068438;28;9717;-73
2022/05/16 07:20:53;;;;;;;;;15.60;15.60;;;;;25.99;33.37;99682.31;5068582;28;8852;-74
2022/05/16 07:23:21;;;;;;;;;17.50;17.00;;;;;26.20;33.75;99672.97;5066717;28;8970;-74
2022/05/16 07:28:37;;;;;;;;;14.40;12.80;;;;;26.36;32.43;99677.34;5068799;28;8828;-73
2022/05/16 07:31:05;;;;;;;;;14.00;14.00;;;;;26.36;31.80;99672.00;5048666;28;8868;-72
2022/05/16 07:33:35;;;;;;;;;13.50;12.25;;;;;26.49;33.06;99672.06;5062825;28;8933;-73
2022/05/16 07:36:06;;;;;;;;;12.20;12.20;;;;;26.68;32.44;99671.75;5068148;28;11061;-73
2022/05/16 07:38:34;;;;;;;;;14.50;13.75;;;;;26.44;32.51;99669.66;5068588;28;8876;-68
2022/05/16 07:41:04;;;;;;;;;12.60;12.60;;;;;26.60;31.68;99672.25;5067885;28;8843;-72
2022/05/16 07:43:33;;;;;;;;;14.25;14.25;;;;;26.79;31.43;99671.91;5068257;28;8951;-66
2022/05/16 07:46:03;;;;;;;;;14.75;14.00;;;;;26.85;31.23;99674.19;5063286;28;8842;-66
2022/05/16 07:48:33;;;;;;;;;16.00;16.00;;;;;26.49;32.06;99680.09;5047690;28;8977;-69
2022/05/16 07:51:02;;;;;;;;;13.75;13.00;;;;;26.76;31.27;99678.31;5047821;28;8854;-69
2022/05/16 07:53:32;;;;;;;;;15.75;14.00;;;;;26.88;31.31;99683.81;5052056;28;8863;-70
2022/05/16 07:56:01;;;;;;;;;19.75;19.75;;;;;26.92;30.79;99685.31;5067621;28;8902;-75
2022/05/16 07:58:29;;;;;;;;;17.25;15.25;;;;;27.14;30.55;99679.41;5050334;28;8965;-73
2022/05/16 08:00:57;;;;;;;;;12.50;12.50;;;;;27.29;29.50;99686.44;5050908;28;8961;-77
2022/05/16 08:03:28;;;;;;;;;14.00;14.00;;;;;27.20;30.09;99689.69;5067054;28;8860;-73
2022/05/16 08:05:58;;;;;;;;;12.00;12.00;;;;;27.51;29.90;99685.84;5029595;28;8870;-74
2022/05/16 08:11:15;;;;;;;;;11.00;9.00;;;;;27.84;29.91;99691.63;5053807;28;8852;-75
2022/05/16 08:13:44;;;;;;;;;11.40;11.00;;;;;28.02;29.63;99689.53;5065207;28;8879;-73
2022/05/16 08:16:13;;;;;;;;;12.25;9.25;;;;;28.13;29.56;99687.78;5064972;28;8867;-77
2022/05/16 08:18:42;;;;;;;;;14.75;14.50;;;;;27.69;29.96;99688.19;5049405;28;8869;-76
2022/05/16 08:21:14;;;;;;;;;11.00;9.60;;;;;27.43;30.18;99682.84;5061393;28;8852;-75
2022/05/16 08:23:43;;;;;;;;;14.50;14.50;;;;;27.58;29.79;99688.94;5064321;28;8852;-76
2022/05/16 08:26:11;;;;;;;;;14.75;14.75;;;;;27.81;29.48;99690.03;5055648;28;8864;-77
2022/05/16 08:28:42;;;;;;;;;10.00;10.00;;;;;28.04;29.16;99695.63;5031024;28;8836;-77
2022/05/16 08:31:11;;;;;;;;;12.40;12.00;;;;;28.16;28.18;99689.38;5055388;28;8867;-75
2022/05/16 08:33:40;;;;;;;;;13.60;12.60;;;;;27.87;28.18;99689.59;5068393;28;8848;-75
2022/05/16 08:41:55;;;;;;;;;12.20;12.20;;;;;28.28;25.86;99679.59;5065345;28;8852;-72
2022/05/16 08:44:36;;;;;;;;;12.00;12.00;;;;;28.43;26.50;99688.34;5064003;28;8897;-71
2022/05/16 08:47:17;;;;;;;;;11.60;10.20;;;;;28.31;25.13;99682.06;5029157;28;8864;-75
2022/05/16 08:49:49;;;;;;;;;11.00;10.40;;;;;28.19;25.77;99684.66;5066376;28;8884;-73
2022/05/16 08:52:37;;;;;;;;;9.00;8.60;;;;;28.46;26.16;99675.56;5065325;28;8968;-73
2022/05/16 08:55:15;;;;;;;;;10.20;10.20;;;;;28.62;25.45;99672.69;5066081;28;8844;-73
2022/05/16 08:57:50;;;;;;;;;10.60;10.60;;;;;28.47;26.38;99673.75;5066274;28;8845;-76
2022/05/16 09:00:28;;;;;;;;;11.25;11.25;;;;;28.73;25.90;99679.91;5063378;28;8852;-75
2022/05/16 09:02:59;;;;;;;;;13.00;12.25;;;;;28.35;26.31;99684.41;5066451;28;8852;-73
2022/05/16 09:05:36;;;;;;;;;9.75;9.75;;;;;28.66;25.81;99687.59;5047218;28;8930;-72
2022/05/16 09:08:13;;;;;;;;;13.75;13.25;;;;;28.89;26.05;99677.81;5065059;28;8937;-73
2022/05/16 09:11:02;;;;;;;;;12.80;12.80;;;;;29.08;25.44;99679.13;5052641;28;8855;-73
2022/05/16 09:13:47;;;;;;;;;8.60;8.60;;;;;28.90;25.13;99686.72;5030393;28;8840;-74
2022/05/16 09:16:42;;;;;;;;;11.00;10.25;;;;;28.59;25.47;99680.94;5066084;28;8868;-71
2022/05/16 09:19:30;;;;;;;;;9.75;9.75;;;;;28.85;25.72;99688.91;5022748;28;8858;-71
2022/05/16 09:22:07;;;;;;;;;13.20;12.60;;;;;28.97;25.27;99675.41;5002290;28;8873;-73
2022/05/16 09:24:39;;;;;;;;;10.40;10.40;;;;;29.16;25.41;99677.59;5021054;28;8869;-74
2022/05/16 09:27:14;;;;;;;;;18.75;17.00;;;;;29.30;25.53;99675.66;5022946;28;8871;-72
2022/05/16 09:29:45;;;;;;;;;11.00;11.00;;;;;28.98;25.21;99676.28;5025037;28;8879;-70
2022/05/16 09:32:28;;;;;;;;;11.60;11.20;;;;;28.36;26.21;99682.59;5007653;28;8866;-73
2022/05/16 09:34:57;;;;;;;;;12.40;12.40;;;;;27.96;27.20;99680.09;5021953;28;8900;-70
2022/05/16 09:37:25;;;;;;;;;14.50;13.50;;;;;28.19;26.92;99676.63;5014219;28;8849;-70
2022/05/16 09:39:55;;;;;;;;;12.75;12.75;;;;;28.33;26.35;99672.06;5016480;28;8911;-71
2022/05/16 09:42:27;;;;;;;;;14.00;13.25;;;;;28.43;26.30;99662.41;5004230;28;8908;-70
2022/05/16 09:45:01;;;;;;;;;16.75;15.75;;;;;28.63;26.73;99666.31;5015839;28;8878;-69
2022/05/16 09:47:41;;;;;;;;;11.25;11.25;;;;;28.60;26.00;99665.69;5024349;28;8905;-70
2022/05/16 09:50:19;;;;;;;;;10.00;10.00;;;;;28.78;25.64;99670.56;5028541;28;8897;-69
2022/05/16 09:52:52;;;;;;;;;10.00;10.00;;;;;28.51;25.78;99664.53;5019967;28;9107;-68
2022/05/16 09:55:33;;;;;;;;;13.80;13.80;;;;;28.55;25.72;99661.53;5024349;28;8862;-69
2022/05/16 09:58:04;;;;;;;;;12.20;11.00;;;;;28.54;26.14;99649.06;5049794;28;8846;-70
2022/05/16 10:00:39;;;;;;;;;13.00;13.00;;;;;28.75;26.56;99657.38;5056607;28;8970;-71
2022/05/16 10:03:23;;;;;;;;;14.00;11.60;;;;;28.96;26.62;99657.59;5065347;28;8868;-70
2022/05/16 10:05:53;;;;;;;;;9.60;9.60;;;;;29.19;25.25;99646.97;5054972;28;8863;-72
2022/05/16 10:08:28;;;;;;;;;11.40;11.40;;;;;28.54;26.08;99648.22;5051641;28;8841;-70
2022/05/16 10:10:57;;;;;;;;;11.40;11.00;;;;;28.30;26.23;99645.47;5049410;28;8831;-69
2022/05/16 10:13:27;;;;;;;;;14.25;12.00;;;;;28.48;26.22;99640.59;5063122;28;8827;-70
2022/05/16 10:15:57;;;;;;;;;13.25;12.25;;;;;28.69;26.54;99641.72;5052239;28;8867;-70
2022/05/16 10:18:31;;;;;;;;;14.00;14.00;;;;;28.92;26.88;99636.44;5053316;28;8882;-69
2022/05/16 10:21:05;;;;;;;;;15.00;15.00;;;;;29.05;27.34;99633.69;5051547;28;8834;-70
2022/05/16 10:23:37;;;;;;;;;12.75;12.25;;;;;29.30;26.16;99640.75;5063314;28;8856;-69
2022/05/16 10:26:10;;;;;;;;;10.25;10.25;;;;;29.48;25.77;99635.78;5067088;28;8929;-69
2022/05/16 10:28:41;;;;;;;;;14.75;14.00;;;;;29.62;25.54;99642.78;5062190;28;8866;-69
2022/05/16 10:34:09;;;;;;;;;8.50;7.00;;;;;30.01;23.89;99629.88;5058791;28;8834;-71
2022/05/16 10:36:39;;;;;;;;;10.00;9.25;;;;;30.18;24.97;99628.50;5051594;28;9703;-71
2022/05/16 10:39:13;;;;;;;;;13.00;12.00;;;;;30.22;24.45;99629.97;5059578;28;8992;-75
2022/05/16 10:41:50;;;;;;;;;12.25;11.75;;;;;30.31;24.00;99627.38;5055172;28;8864;-69
2022/05/16 10:44:29;;;;;;;;;15.25;14.00;;;;;30.46;24.08;99622.59;5031575;28;8986;-69
2022/05/16 10:47:03;;;;;;;;;14.00;13.75;;;;;30.58;24.21;99625.28;5029777;28;9005;-70
2022/05/16 10:49:39;;;;;;;;;14.50;14.00;;;;;30.73;24.99;99624.00;5065175;28;8875;-70
2022/05/16 10:52:24;;;;;;;;;13.50;13.50;;;;;30.87;23.78;99615.63;5069362;28;8844;-69
2022/05/16 10:54:53;;;;;;;;;13.50;13.25;;;;;30.76;23.73;99618.34;5069369;28;8937;-68
2022/05/16 10:57:38;;;;;;;;;12.25;12.25;;;;;30.05;24.25;99617.88;5068339;28;9662;-68
2022/05/16 11:00:15;;;;;;;;;14.00;14.00;;;;;29.19;25.09;99624.59;5052673;28;8885;-69
2022/05/16 11:03:05;;;;;;;;;12.25;12.25;;;;;29.44;25.14;99610.16;5051768;28;8859;-71
2022/05/16 11:05:59;;;;;;;;;13.00;13.00;;;;;29.94;26.12;99610.66;5050994;28;10902;-69
2022/05/16 11:08:45;;;;;;;;;12.50;12.25;;;;;30.38;24.58;99613.44;5068739;28;8898;-71
2022/05/16 11:11:26;;;;;;;;;12.50;11.50;;;;;30.56;24.24;99605.69;5069012;28;9010;-70
2022/05/16 11:14:05;;;;;;;;;14.25;14.25;;;;;30.64;24.91;99606.78;5069473;28;8848;-70
2022/05/16 11:16:35;;;;;;;;;12.25;12.25;;;;;30.95;23.10;99604.22;5068920;28;9607;-69
2022/05/16 11:19:21;;;;;;;;;12.75;12.75;;;;;31.36;22.75;99597.13;5065985;28;8872;-70
2022/05/16 11:21:58;;;;;;;;;12.00;12.00;;;;;31.53;22.04;99597.53;5053736;28;8840;-71
2022/05/16 11:24:41;;;;;;;;;12.75;11.75;;;;;31.84;22.60;99601.94;5062306;28;8862;-70
2022/05/16 11:27:23;;;;;;;;;12.00;12.00;;;;;32.29;22.00;99602.50;5053726;28;8974;-70
2022/05/16 11:30:01;;;;;;;;;12.75;12.75;;;;;32.69;22.03;99604.31;5055395;28;9696;-70
2022/05/16 11:32:48;;;;;;;;;12.00;11.00;;;;;32.99;21.34;99597.91;5068169;28;9083;-71
2022/05/16 11:35:23;;;;;;;;;12.25;12.25;;;;;33.27;20.94;99593.50;5068378;28;8874;-70
2022/05/16 11:38:11;;;;;;;;;12.25;11.00;;;;;33.44;20.98;99585.59;5068081;28;8886;-70
2022/05/16 11:40:49;;;;;;;;;12.00;12.00;;;;;33.32;20.67;99604.69;5057984;28;8836;-70
2022/05/16 11:43:25;;;;;;;;;12.00;12.00;;;;;33.27;20.86;99592.63;5068162;28;8871;-71
2022/05/16 11:46:27;;;;;;;;;14.00;13.25;;;;;33.13;20.39;99596.63;5033080;28;8880;-70
2022/05/16 11:49:17;;;;;;;;;12.25;11.75;;;;;32.90;20.68;99596.91;4989846;28;8881;-70
2022/05/16 11:52:36;;;;;;;;;14.25;13.00;;;;;32.52;21.47;99595.03;5006135;28;8876;-70
2022/05/16 12:00:31;;;;;;;;;15.75;13.25;;;;;32.61;21.12;99588.81;4965709;28;8882;-69
2022/05/16 12:00:53;;;;;;;;;13.25;12.50;;;;;33.11;21.03;99579.72;4965799;28;8857;-70
2022/05/16 12:03:23;;;;;;;;;12.25;11.50;;;;;33.21;20.73;99584.13;4947036;28;8965;-71
2022/05/16 12:05:53;;;;;;;;;10.50;10.50;;;;;33.47;20.01;99577.22;4946867;28;8902;-70
2022/05/16 12:08:40;;;;;;;;;10.75;10.75;;;;;33.89;20.35;99568.66;4902978;28;10206;-71
2022/05/16 12:11:16;;;;;;;;;15.50;15.00;;;;;34.18;19.53;99561.25;4955608;28;8916;-69
2022/05/16 12:14:06;;;;;;;;;12.25;11.00;;;;;34.46;19.18;99558.50;4960274;28;8896;-69
2022/05/16 12:16:42;;;;;;;;;11.50;11.50;;;;;34.63;18.77;99554.06;4889207;29;8934;-69
2022/05/16 12:19:24;;;;;;;;;8.75;8.75;;;;;35.00;18.83;99554.91;4889761;29;8879;-68